createdAt,value
2019-06-26T00:00:25.793Z,24.10
2019-06-26T00:02:56.042Z,24.10
2019-06-26T00:05:26.365Z,24.10
2019-06-26T00:07:56.680Z,24.10
2019-06-26T00:10:26.883Z,24.10
2019-06-26T00:12:57.237Z,24.00
2019-06-26T00:15:27.654Z,24.10
2019-06-26T00:17:57.849Z,24.00
2019-06-26T00:20:28.128Z,24.00
2019-06-26T00:22:58.151Z,24.00
2019-06-26T00:25:28.281Z,24.00
2019-06-26T00:27:58.383Z,24.00
2019-06-26T00:30:30.155Z,24.00
2019-06-26T00:33:00.262Z,24.00
2019-06-26T00:35:30.405Z,23.90
2019-06-26T00:38:00.796Z,24.00
2019-06-26T00:40:31.220Z,23.90
2019-06-26T00:43:01.463Z,23.90
2019-06-26T00:45:31.648Z,23.80
2019-06-26T00:48:01.720Z,23.80
2019-06-26T00:50:32.094Z,23.80
2019-06-26T00:53:02.223Z,23.80
2019-06-26T00:55:32.519Z,23.70
2019-06-26T00:58:02.891Z,23.70
2019-06-26T01:00:38.282Z,23.70
2019-06-26T01:03:08.396Z,23.70
2019-06-26T01:05:38.746Z,23.60
2019-06-26T01:08:08.903Z,23.60
2019-06-26T01:10:39.329Z,23.60
2019-06-26T01:13:09.577Z,23.50
2019-06-26T01:15:39.753Z,23.50
2019-06-26T01:18:09.938Z,23.40
2019-06-26T01:20:40.031Z,23.40
2019-06-26T01:23:10.247Z,23.40
2019-06-26T01:25:40.537Z,23.40
2019-06-26T01:28:10.557Z,23.40
2019-06-26T01:30:40.580Z,23.40
2019-06-26T01:33:10.669Z,23.40
2019-06-26T01:35:40.781Z,23.40
2019-06-26T01:38:11.011Z,23.40
2019-06-26T01:40:41.420Z,23.40
2019-06-26T01:43:11.515Z,23.40
2019-06-26T01:45:41.583Z,23.30
2019-06-26T01:48:11.796Z,23.30
2019-06-26T01:50:43.120Z,23.30
2019-06-26T01:53:13.164Z,23.30
2019-06-26T01:55:43.071Z,23.30
2019-06-26T01:58:13.359Z,23.30
2019-06-26T02:00:44.545Z,23.30
2019-06-26T02:03:14.726Z,23.30
2019-06-26T02:05:44.819Z,23.30
2019-06-26T02:08:14.915Z,23.30
2019-06-26T02:10:45.312Z,23.30
2019-06-26T02:13:15.578Z,23.30
2019-06-26T02:15:45.592Z,23.30
2019-06-26T02:18:34.736Z,23.30
2019-06-26T02:21:05.094Z,23.20
2019-06-26T02:23:35.264Z,23.20
2019-06-26T02:26:05.521Z,23.20
2019-06-26T02:28:35.622Z,23.20
2019-06-26T02:31:05.694Z,23.20
2019-06-26T02:33:35.889Z,23.20
2019-06-26T02:36:06.237Z,23.20
2019-06-26T02:38:36.421Z,23.20
2019-06-26T02:41:06.889Z,23.20
2019-06-26T02:43:36.974Z,23.20
2019-06-26T02:46:07.013Z,23.20
2019-06-26T02:48:37.313Z,23.20
2019-06-26T02:51:07.607Z,23.20
2019-06-26T02:53:37.724Z,23.20
2019-06-26T02:56:07.851Z,23.20
2019-06-26T02:58:38.008Z,23.20
2019-06-26T03:01:08.171Z,23.10
2019-06-26T03:03:38.409Z,23.10
2019-06-26T03:06:08.575Z,23.10
2019-06-26T03:08:38.593Z,23.10
2019-06-26T03:11:08.851Z,23.10
2019-06-26T03:13:39.113Z,23.10
2019-06-26T03:16:10.488Z,23.10
2019-06-26T03:18:40.717Z,23.20
2019-06-26T03:21:10.813Z,23.20
2019-06-26T03:23:41.094Z,23.20
2019-06-26T03:26:11.297Z,23.20
2019-06-26T03:28:41.471Z,23.30
2019-06-26T03:31:11.634Z,23.30
2019-06-26T03:33:41.799Z,23.30
2019-06-26T03:36:11.946Z,23.30
2019-06-26T03:38:42.019Z,23.30
2019-06-26T03:41:12.228Z,23.40
2019-06-26T03:43:42.440Z,23.40
2019-06-26T03:46:12.489Z,23.40
2019-06-26T03:48:42.630Z,23.40
2019-06-26T03:51:14.030Z,23.40
2019-06-26T03:53:44.418Z,23.40
2019-06-26T03:56:14.498Z,23.40
2019-06-26T03:58:44.495Z,23.40
2019-06-26T04:01:14.391Z,23.40
2019-06-26T04:03:44.430Z,23.40
2019-06-26T04:06:14.571Z,23.50
2019-06-26T04:08:44.634Z,23.50
2019-06-26T04:11:14.687Z,23.50
2019-06-26T04:13:45.156Z,23.50
2019-06-26T04:16:15.652Z,23.50
2019-06-26T04:18:45.790Z,23.60
2019-06-26T04:21:15.926Z,23.70
2019-06-26T04:23:46.000Z,23.70
2019-06-26T04:26:16.247Z,23.80
2019-06-26T04:28:46.584Z,23.80
2019-06-26T04:31:16.605Z,23.90
2019-06-26T04:33:46.870Z,23.90
2019-06-26T04:36:16.984Z,23.90
2019-06-26T04:38:47.171Z,24.00
2019-06-26T04:41:17.529Z,24.00
2019-06-26T04:43:47.715Z,24.00
2019-06-26T04:46:18.158Z,24.00
2019-06-26T04:48:48.257Z,24.10
2019-06-26T04:51:18.337Z,24.10
2019-06-26T04:53:48.292Z,24.20
2019-06-26T04:56:18.380Z,24.20
2019-06-26T04:58:48.422Z,24.20
2019-06-26T05:01:18.478Z,24.20
2019-06-26T05:03:48.538Z,24.20
2019-06-26T05:06:18.599Z,24.30
2019-06-26T05:08:50.246Z,24.30
2019-06-26T05:11:20.423Z,24.30
2019-06-26T05:13:50.681Z,24.30
2019-06-26T05:16:20.845Z,24.30
2019-06-26T05:18:50.921Z,24.40
2019-06-26T05:21:21.003Z,24.50
2019-06-26T05:23:51.695Z,24.50
2019-06-26T05:26:22.248Z,24.50
2019-06-26T05:28:52.431Z,24.60
2019-06-26T05:31:22.688Z,24.60
2019-06-26T05:33:53.091Z,24.70
2019-06-26T05:36:23.287Z,24.70
2019-06-26T05:38:53.349Z,24.70
2019-06-26T05:41:23.427Z,24.70
2019-06-26T05:43:53.563Z,24.80
2019-06-26T05:46:31.216Z,24.80
2019-06-26T05:48:55.927Z,24.80
2019-06-26T05:51:37.913Z,24.80
2019-06-26T05:54:08.165Z,24.90
2019-06-26T05:56:38.262Z,25.00
2019-06-26T05:59:08.469Z,25.00
2019-06-26T06:01:38.629Z,25.10
2019-06-26T06:04:08.684Z,25.20
2019-06-26T06:06:41.960Z,25.20
2019-06-26T06:09:10.649Z,25.30
2019-06-26T06:11:40.821Z,25.30
2019-06-26T06:14:10.850Z,25.40
2019-06-26T06:16:47.261Z,25.40
2019-06-26T06:19:12.851Z,25.50
2019-06-26T06:21:42.816Z,25.60
2019-06-26T06:24:12.910Z,25.60
2019-06-26T06:26:43.076Z,25.70
2019-06-26T06:29:13.199Z,25.90
2019-06-26T06:31:43.197Z,25.90
2019-06-26T06:34:13.339Z,26.10
2019-06-26T06:36:43.620Z,26.10
2019-06-26T06:39:13.847Z,26.20
2019-06-26T06:41:46.234Z,26.30
2019-06-26T06:44:16.406Z,26.30
2019-06-26T06:47:02.458Z,26.40
2019-06-26T06:49:18.516Z,26.40
2019-06-26T06:51:48.583Z,26.60
2019-06-26T06:54:18.938Z,26.70
2019-06-26T06:56:49.440Z,26.80
2019-06-26T06:59:19.642Z,26.80
2019-06-26T07:01:49.784Z,26.80
2019-06-26T07:04:19.781Z,26.90
2019-06-26T07:06:50.005Z,27.00
2019-06-26T07:09:20.655Z,27.00
2019-06-26T07:11:50.860Z,27.10
2019-06-26T07:14:21.120Z,27.10
2019-06-26T07:16:51.171Z,27.10
2019-06-26T07:19:33.635Z,27.50
2019-06-26T07:22:07.474Z,27.70
2019-06-26T07:24:37.957Z,27.90
2019-06-26T07:27:08.110Z,28.00
2019-06-26T07:29:38.278Z,28.00
2019-06-26T07:32:08.441Z,28.00
2019-06-26T07:34:38.504Z,28.20
2019-06-26T07:37:08.874Z,28.30
2019-06-26T07:39:38.906Z,28.40
2019-06-26T07:42:09.118Z,28.50
2019-06-26T07:44:39.089Z,28.60
2019-06-26T07:47:22.453Z,28.70
2019-06-26T07:49:40.857Z,28.80
2019-06-26T07:52:10.860Z,28.70
2019-06-26T07:54:40.943Z,28.80
2019-06-26T07:57:11.238Z,28.80
2019-06-26T07:59:41.483Z,28.90
2019-06-26T08:02:11.543Z,29.10
2019-06-26T08:04:41.904Z,29.30
2019-06-26T08:07:11.941Z,29.30
2019-06-26T08:09:42.143Z,29.30
2019-06-26T08:12:12.332Z,29.50
2019-06-26T08:14:42.503Z,29.70
2019-06-26T08:17:12.770Z,29.80
2019-06-26T08:19:43.097Z,29.80
2019-06-26T08:22:13.238Z,29.90
2019-06-26T08:24:43.360Z,30.00
2019-06-26T08:27:14.713Z,30.00
2019-06-26T08:29:44.961Z,30.20
2019-06-26T08:32:15.170Z,30.40
2019-06-26T08:34:45.241Z,30.50
2019-06-26T08:37:15.405Z,30.50
2019-06-26T08:39:45.508Z,30.60
2019-06-26T08:42:15.663Z,30.70
2019-06-26T08:44:45.694Z,30.80
2019-06-26T08:47:16.781Z,30.90
2019-06-26T08:49:46.875Z,30.90
2019-06-26T08:52:17.527Z,31.10
2019-06-26T08:54:47.743Z,31.10
2019-06-26T08:57:18.119Z,31.00
2019-06-26T08:59:48.260Z,31.10
2019-06-26T09:02:18.445Z,31.20
2019-06-26T09:04:50.268Z,31.20
2019-06-26T09:07:20.483Z,31.30
2019-06-26T09:09:50.762Z,31.30
2019-06-26T09:12:20.938Z,31.30
2019-06-26T09:14:51.199Z,31.30
2019-06-26T09:17:21.390Z,31.30
2019-06-26T09:19:51.502Z,31.30
2019-06-26T09:22:21.550Z,31.30
2019-06-26T09:24:51.604Z,31.30
2019-06-26T09:27:21.858Z,31.40
2019-06-26T09:29:52.095Z,31.30
2019-06-26T09:32:22.423Z,31.20
2019-06-26T09:34:52.560Z,31.20
2019-06-26T09:37:22.516Z,31.40
2019-06-26T09:39:52.989Z,31.50
2019-06-26T09:42:24.735Z,31.60
2019-06-26T09:44:54.887Z,31.70
2019-06-26T09:47:25.118Z,31.60
2019-06-26T09:49:55.138Z,31.60
2019-06-26T09:52:25.158Z,31.70
2019-06-26T09:54:55.440Z,31.70
2019-06-26T09:57:25.464Z,31.90
2019-06-26T09:59:55.733Z,31.90
2019-06-26T10:02:25.914Z,32.00
2019-06-26T10:04:56.125Z,32.00
2019-06-26T10:07:26.284Z,32.00
2019-06-26T10:09:56.793Z,32.10
2019-06-26T10:12:26.976Z,32.20
2019-06-26T10:14:57.218Z,32.30
2019-06-26T10:17:27.388Z,32.60
2019-06-26T10:19:57.509Z,32.60
2019-06-26T10:22:27.614Z,32.60
2019-06-26T10:24:57.914Z,32.70
2019-06-26T10:27:28.058Z,32.70
2019-06-26T10:29:58.191Z,32.60
2019-06-26T10:32:28.378Z,32.60
2019-06-26T10:34:58.668Z,32.70
2019-06-26T10:37:28.902Z,32.70
2019-06-26T10:39:59.046Z,32.80
2019-06-26T10:42:29.353Z,33.00
2019-06-26T10:44:59.329Z,33.10
2019-06-26T10:47:29.499Z,33.20
2019-06-26T10:49:59.882Z,33.10
2019-06-26T10:52:29.924Z,33.10
2019-06-26T10:55:00.317Z,33.10
2019-06-26T10:57:30.690Z,33.10
2019-06-26T11:00:00.863Z,33.20
2019-06-26T11:02:31.020Z,33.20
2019-06-26T11:05:01.319Z,33.30
2019-06-26T11:07:31.446Z,33.30
2019-06-26T11:10:01.695Z,33.40
2019-06-26T11:12:32.015Z,33.40
2019-06-26T11:15:02.206Z,33.50
2019-06-26T11:17:32.449Z,33.60
2019-06-26T11:20:02.601Z,33.50
2019-06-26T11:22:32.898Z,33.50
2019-06-26T11:25:03.244Z,33.60
2019-06-26T11:27:33.650Z,33.60
2019-06-26T11:30:15.855Z,33.60
2019-06-26T11:32:46.181Z,33.80
2019-06-26T11:35:17.462Z,34.00
2019-06-26T11:37:47.737Z,34.10
2019-06-26T11:40:18.647Z,34.20
2019-06-26T11:42:50.170Z,34.20
2019-06-26T11:45:20.617Z,34.40
2019-06-26T11:47:50.826Z,34.40
2019-06-26T11:50:21.763Z,34.40
2019-06-26T11:52:52.150Z,34.40
2019-06-26T11:55:22.541Z,34.40
2019-06-26T11:57:52.840Z,34.60
2019-06-26T12:00:24.195Z,34.80
2019-06-26T12:02:54.324Z,34.80
2019-06-26T12:05:24.467Z,34.90
2019-06-26T12:07:54.794Z,35.00
2019-06-26T12:10:25.245Z,34.90
2019-06-26T12:12:55.476Z,34.80
2019-06-26T12:15:26.238Z,34.70
2019-06-26T12:17:56.312Z,34.60
2019-06-26T12:20:26.531Z,34.60
2019-06-26T12:22:56.870Z,34.80
2019-06-26T12:25:27.286Z,34.90
2019-06-26T12:27:57.300Z,35.00
2019-06-26T12:30:27.497Z,35.10
2019-06-26T12:33:03.336Z,35.10
2019-06-26T12:35:29.518Z,35.10
2019-06-26T12:37:59.664Z,35.20
2019-06-26T12:40:31.202Z,35.20
2019-06-26T12:43:01.788Z,35.10
2019-06-26T12:45:34.287Z,35.00
2019-06-26T12:48:05.839Z,35.00
2019-06-26T12:50:36.317Z,35.10
2019-06-26T12:53:06.785Z,35.20
2019-06-26T12:55:36.948Z,35.20
2019-06-26T12:58:14.046Z,35.20
2019-06-26T13:00:58.446Z,35.20
2019-06-26T13:03:28.702Z,35.20
2019-06-26T13:05:58.923Z,35.30
2019-06-26T13:08:29.172Z,35.30
2019-06-26T13:10:59.320Z,35.40
2019-06-26T13:13:29.389Z,35.60
2019-06-26T13:15:59.697Z,35.60
2019-06-26T13:18:29.882Z,35.70
2019-06-26T13:21:00.299Z,35.70
2019-06-26T13:23:30.466Z,35.70
2019-06-26T13:26:00.705Z,35.80
2019-06-26T13:28:30.982Z,35.80
2019-06-26T13:31:01.148Z,35.90
2019-06-26T13:33:31.376Z,35.90
2019-06-26T13:36:01.455Z,35.90
2019-06-26T13:38:31.504Z,35.90
2019-06-26T13:41:01.773Z,35.90
2019-06-26T13:43:31.985Z,35.90
2019-06-26T13:46:02.563Z,35.90
2019-06-26T13:48:32.844Z,35.80
2019-06-26T13:51:09.151Z,35.60
2019-06-26T13:53:35.163Z,35.60
2019-06-26T13:56:05.585Z,35.70
2019-06-26T13:58:35.875Z,35.80
2019-06-26T14:01:05.968Z,35.80
2019-06-26T14:03:36.097Z,35.70
2019-06-26T14:06:06.189Z,35.80
2019-06-26T14:08:36.552Z,35.80
2019-06-26T14:11:07.571Z,35.90
2019-06-26T14:13:41.534Z,36.00
2019-06-26T14:16:10.569Z,36.00
2019-06-26T14:18:41.986Z,36.00
2019-06-26T14:21:24.961Z,35.90
2019-06-26T14:23:43.956Z,35.90
2019-06-26T14:26:14.141Z,35.80
2019-06-26T14:28:44.467Z,35.90
2019-06-26T14:31:14.563Z,35.90
2019-06-26T14:33:44.768Z,35.90
2019-06-26T14:36:15.033Z,36.00
2019-06-26T14:38:45.305Z,35.80
2019-06-26T14:41:15.654Z,35.70
2019-06-26T14:43:45.829Z,35.80
2019-06-26T14:46:16.020Z,35.90
2019-06-26T14:48:46.335Z,35.90
2019-06-26T14:51:16.464Z,35.90
2019-06-26T14:53:46.783Z,35.90
2019-06-26T14:56:16.986Z,35.90
2019-06-26T14:58:47.262Z,36.00
2019-06-26T15:01:17.482Z,36.00
2019-06-26T15:03:47.763Z,36.00
2019-06-26T15:06:17.859Z,36.10
2019-06-26T15:08:47.958Z,36.10
2019-06-26T15:11:18.229Z,36.00
2019-06-26T15:13:48.219Z,36.00
2019-06-26T15:16:18.304Z,36.00
2019-06-26T15:18:49.461Z,36.10
2019-06-26T15:21:19.609Z,36.00
2019-06-26T15:23:49.631Z,35.90
2019-06-26T15:26:19.699Z,35.90
2019-06-26T15:28:49.650Z,35.80
2019-06-26T15:31:19.557Z,35.90
2019-06-26T15:33:49.626Z,35.90
2019-06-26T15:36:19.795Z,35.90
2019-06-26T15:38:50.122Z,35.80
2019-06-26T15:41:20.584Z,35.70
2019-06-26T15:43:50.526Z,35.70
2019-06-26T15:46:20.556Z,35.80
2019-06-26T15:48:50.787Z,35.80
2019-06-26T15:51:20.897Z,35.80
2019-06-26T15:53:50.990Z,35.80
2019-06-26T15:56:21.062Z,35.80
2019-06-26T15:58:51.251Z,35.70
2019-06-26T16:01:21.312Z,35.60
2019-06-26T16:03:51.493Z,35.70
2019-06-26T16:06:21.620Z,35.60
2019-06-26T16:08:51.843Z,35.60
2019-06-26T16:11:22.053Z,35.40
2019-06-26T16:13:52.182Z,35.40
2019-06-26T16:16:23.039Z,35.40
2019-06-26T16:18:59.790Z,35.40
2019-06-26T16:21:29.956Z,35.40
2019-06-26T16:24:00.087Z,35.30
2019-06-26T16:26:30.353Z,35.20
2019-06-26T16:29:00.380Z,35.20
2019-06-26T16:31:30.692Z,35.00
2019-06-26T16:34:00.731Z,34.90
2019-06-26T16:36:30.964Z,34.90
2019-06-26T16:39:01.157Z,34.80
2019-06-26T16:41:33.758Z,34.80
2019-06-26T16:44:04.013Z,34.80
2019-06-26T16:46:34.192Z,34.80
2019-06-26T16:49:04.528Z,34.80
2019-06-26T16:51:34.740Z,34.80
2019-06-26T16:54:05.080Z,34.80
2019-06-26T16:56:35.280Z,34.90
2019-06-26T16:59:05.451Z,34.90
2019-06-26T17:01:35.606Z,34.90
2019-06-26T17:04:06.005Z,34.90
2019-06-26T17:06:36.483Z,34.90
2019-06-26T17:09:08.822Z,34.80
2019-06-26T17:11:39.252Z,34.80
2019-06-26T17:14:09.586Z,34.70
2019-06-26T17:16:40.056Z,34.60
2019-06-26T17:19:10.591Z,34.50
2019-06-26T17:21:40.831Z,34.50
2019-06-26T17:24:11.082Z,34.30
2019-06-26T17:26:41.214Z,34.20
2019-06-26T17:29:11.444Z,34.20
2019-06-26T17:31:41.723Z,34.20
2019-06-26T17:34:12.187Z,34.10
2019-06-26T17:36:42.457Z,34.00
2019-06-26T17:39:12.704Z,34.00
2019-06-26T17:41:44.144Z,34.00
2019-06-26T17:44:14.470Z,33.80
2019-06-26T17:46:44.574Z,33.90
2019-06-26T17:49:15.020Z,33.80
2019-06-26T17:51:45.057Z,33.70
2019-06-26T17:54:15.288Z,33.60
2019-06-26T17:56:45.323Z,33.60
2019-06-26T17:59:15.528Z,33.60
2019-06-26T18:01:46.750Z,33.50
2019-06-26T18:04:16.950Z,33.40
2019-06-26T18:06:46.961Z,33.30
2019-06-26T18:09:17.021Z,33.20
2019-06-26T18:11:47.175Z,33.20
2019-06-26T18:14:17.358Z,33.20
2019-06-26T18:16:47.487Z,33.10
2019-06-26T18:19:17.701Z,33.00
2019-06-26T18:21:49.164Z,33.00
2019-06-26T18:24:19.197Z,32.90
2019-06-26T18:26:49.595Z,32.80
2019-06-26T18:29:19.841Z,32.80
2019-06-26T18:31:49.914Z,32.70
2019-06-26T18:34:20.295Z,32.60
2019-06-26T18:36:50.680Z,32.50
2019-06-26T18:39:21.001Z,32.40
2019-06-26T18:41:51.456Z,32.40
2019-06-26T18:44:21.731Z,32.30
2019-06-26T18:46:52.188Z,32.10
2019-06-26T18:49:22.551Z,31.90
2019-06-26T18:51:52.838Z,31.70
2019-06-26T18:54:23.124Z,31.50
2019-06-26T18:56:53.421Z,31.30
2019-06-26T18:59:23.565Z,31.10
2019-06-26T19:01:53.850Z,30.90
2019-06-26T19:04:25.835Z,30.80
2019-06-26T19:06:56.323Z,30.70
2019-06-26T19:09:31.427Z,30.60
2019-06-26T19:12:07.606Z,30.40
2019-06-26T19:14:37.650Z,30.30
2019-06-26T19:17:07.845Z,30.20
2019-06-26T19:19:42.123Z,30.10
2019-06-26T19:22:12.358Z,30.00
2019-06-26T19:24:43.205Z,29.90
2019-06-26T19:27:13.219Z,29.80
2019-06-26T19:29:43.686Z,29.70
2019-06-26T19:32:15.095Z,29.60
2019-06-26T19:34:45.268Z,29.50
2019-06-26T19:37:15.318Z,29.50
2019-06-26T19:39:46.595Z,29.60
2019-06-26T19:42:19.255Z,29.60
2019-06-26T19:44:52.061Z,29.70
2019-06-26T19:47:22.559Z,29.70
2019-06-26T19:49:54.424Z,29.70
2019-06-26T19:52:27.445Z,29.80
2019-06-26T19:55:07.338Z,29.80
2019-06-26T19:57:53.472Z,29.70
2019-06-26T20:00:33.771Z,29.70
2019-06-26T20:03:07.402Z,29.70
2019-06-26T20:06:01.224Z,29.70
2019-06-26T20:09:08.681Z,29.90
2019-06-26T20:12:11.404Z,29.90
2019-06-26T20:14:48.640Z,29.80
2019-06-26T20:17:27.602Z,29.80
2019-06-26T20:19:58.737Z,29.80
2019-06-26T20:22:28.924Z,29.80
2019-06-26T20:24:59.223Z,29.70
2019-06-26T20:27:30.919Z,29.70
2019-06-26T20:30:01.409Z,29.70
2019-06-26T20:32:32.372Z,29.70
2019-06-26T20:35:04.678Z,29.70
2019-06-26T20:37:35.989Z,29.70
2019-06-26T20:40:27.274Z,29.70
2019-06-26T20:43:07.672Z,29.70
2019-06-26T20:45:37.897Z,29.70
2019-06-26T20:48:08.240Z,29.60
2019-06-26T20:50:38.409Z,29.70
2019-06-26T20:53:08.774Z,29.60
2019-06-26T20:55:39.194Z,29.50
2019-06-26T20:58:09.184Z,29.50
2019-06-26T21:00:41.503Z,29.50
2019-06-26T21:03:11.876Z,29.40
2019-06-26T21:05:42.095Z,29.40
2019-06-26T21:08:12.926Z,29.30
2019-06-26T21:10:43.584Z,29.30
2019-06-26T21:13:14.036Z,29.30
2019-06-26T21:15:44.341Z,29.20
2019-06-26T21:18:14.747Z,29.20
2019-06-26T21:20:46.380Z,29.10
2019-06-26T21:23:18.919Z,29.10
2019-06-26T21:25:48.486Z,29.00
2019-06-26T21:28:18.690Z,29.00
2019-06-26T21:30:48.865Z,29.00
2019-06-26T21:33:19.082Z,28.90
2019-06-26T21:35:49.684Z,28.90
2019-06-26T21:38:20.292Z,28.80
2019-06-26T21:40:50.453Z,28.80
2019-06-26T21:43:20.944Z,28.80
2019-06-26T21:45:51.665Z,28.70
2019-06-26T21:48:21.998Z,28.70
2019-06-26T21:50:52.274Z,28.60
2019-06-26T21:53:22.315Z,28.60
2019-06-26T21:55:54.312Z,28.50
2019-06-26T21:58:26.161Z,28.50
2019-06-26T22:00:58.161Z,28.40
2019-06-26T22:03:30.733Z,28.40
2019-06-26T22:06:03.081Z,28.40
2019-06-26T22:08:35.168Z,28.30
2019-06-26T22:11:07.159Z,28.30
2019-06-26T22:13:37.647Z,28.30
2019-06-26T22:16:07.846Z,28.30
2019-06-26T22:18:37.945Z,28.30
2019-06-26T22:21:08.393Z,28.30
2019-06-26T22:23:38.659Z,28.20
2019-06-26T22:26:08.844Z,28.30
2019-06-26T22:28:39.032Z,28.20
2019-06-26T22:31:10.204Z,28.20
2019-06-26T22:33:40.465Z,28.10
2019-06-26T22:36:10.657Z,28.10
2019-06-26T22:38:40.912Z,28.10
2019-06-26T22:41:11.053Z,28.10
2019-06-26T22:43:41.204Z,28.00
2019-06-26T22:46:11.385Z,28.00
2019-06-26T22:48:41.466Z,27.90
2019-06-26T22:51:11.610Z,27.80
2019-06-26T22:53:41.753Z,27.80
2019-06-26T22:56:11.964Z,27.80
2019-06-26T22:58:42.094Z,27.80
2019-06-26T23:01:12.282Z,27.80
2019-06-26T23:03:42.518Z,27.70
2019-06-26T23:06:12.660Z,27.70
2019-06-26T23:08:42.727Z,27.80
2019-06-26T23:11:13.900Z,27.70
2019-06-26T23:13:44.014Z,27.70
2019-06-26T23:16:14.247Z,27.60
2019-06-26T23:19:03.608Z,27.50
2019-06-26T23:21:33.861Z,27.40
2019-06-26T23:24:04.112Z,27.20
2019-06-26T23:26:34.090Z,27.10
2019-06-26T23:29:04.371Z,27.00
2019-06-26T23:31:34.429Z,26.90
2019-06-26T23:34:04.467Z,26.90
2019-06-26T23:36:34.685Z,26.90
2019-06-26T23:39:06.205Z,26.80
2019-06-26T23:41:36.411Z,26.80
2019-06-26T23:44:07.593Z,26.70
2019-06-26T23:46:37.741Z,26.70
2019-06-26T23:49:07.752Z,26.70
2019-06-26T23:51:37.694Z,26.60
2019-06-26T23:54:09.057Z,26.60
2019-06-26T23:56:40.701Z,26.50
2019-06-26T23:59:12.315Z,26.50
